sensor_id;sensor_type;location;lat;lon;timestamp;temperature;humidity
3715;DHT22;1873;49.988;8.674;2022-11-15T00:00:49;10.70;99.90
3715;DHT22;1873;49.988;8.674;2022-11-15T00:03:25;10.60;99.90
3715;DHT22;1873;49.988;8.674;2022-11-15T00:05:53;10.60;99.90
3715;DHT22;1873;49.988;8.674;2022-11-15T00:08:22;10.70;99.90
3715;DHT22;1873;49.988;8.674;2022-11-15T00:10:55;10.70;99.90
3715;DHT22;1873;49.988;8.674;2022-11-15T00:13:23;10.60;99.90
3715;DHT22;1873;49.988;8.674;2022-11-15T00:15:52;10.60;99.90
3715;DHT22;1873;49.988;8.674;2022-11-15T00:18:22;10.50;99.90
3715;DHT22;1873;49.988;8.674;2022-11-15T00:20:50;10.50;99.90
3715;DHT22;1873;49.988;8.674;2022-11-15T00:23:19;10.50;99.90
3715;DHT22;1873;49.988;8.674;2022-11-15T00:25:47;10.40;99.90
3715;DHT22;1873;49.988;8.674;2022-11-15T00:28:15;10.40;99.90
3715;DHT22;1873;49.988;8.674;2022-11-15T00:30:44;10.30;99.90
3715;DHT22;1873;49.988;8.674;2022-11-15T00:33:12;10.30;99.90
3715;DHT22;1873;49.988;8.674;2022-11-15T00:35:42;10.30;99.90
3715;DHT22;1873;49.988;8.674;2022-11-15T00:38:10;10.30;99.90
3715;DHT22;1873;49.988;8.674;2022-11-15T00:40:39;10.30;99.90
3715;DHT22;1873;49.988;8.674;2022-11-15T00:43:07;10.30;99.90
3715;DHT22;1873;49.988;8.674;2022-11-15T00:45:35;10.30;99.90
3715;DHT22;1873;49.988;8.674;2022-11-15T00:48:04;10.30;99.90
3715;DHT22;1873;49.988;8.674;2022-11-15T00:51:00;10.30;99.90
3715;DHT22;1873;49.988;8.674;2022-11-15T00:53:28;10.30;99.90
3715;DHT22;1873;49.988;8.674;2022-11-15T00:55:57;10.30;99.90
3715;DHT22;1873;49.988;8.674;2022-11-15T00:58:26;10.30;99.90
3715;DHT22;1873;49.988;8.674;2022-11-15T01:00:56;10.30;99.90
3715;DHT22;1873;49.988;8.674;2022-11-15T01:03:24;10.30;99.90
3715;DHT22;1873;49.988;8.674;2022-11-15T01:05:53;10.30;99.90
3715;DHT22;1873;49.988;8.674;2022-11-15T01:08:23;10.30;99.90
3715;DHT22;1873;49.988;8.674;2022-11-15T01:10:52;10.30;99.90
3715;DHT22;1873;49.988;8.674;2022-11-15T01:13:21;10.20;99.90
3715;DHT22;1873;49.988;8.674;2022-11-15T01:15:49;10.20;99.90
3715;DHT22;1873;49.988;8.674;2022-11-15T01:18:18;10.20;99.90
3715;DHT22;1873;49.988;8.674;2022-11-15T01:20:46;10.20;99.90
3715;DHT22;1873;49.988;8.674;2022-11-15T01:23:15;10.20;99.90
3715;DHT22;1873;49.988;8.674;2022-11-15T01:25:45;10.10;99.90
3715;DHT22;1873;49.988;8.674;2022-11-15T01:28:13;10.10;99.90
3715;DHT22;1873;49.988;8.674;2022-11-15T01:30:42;10.10;99.90
3715;DHT22;1873;49.988;8.674;2022-11-15T01:33:10;10.10;99.90
3715;DHT22;1873;49.988;8.674;2022-11-15T01:35:39;10.20;99.90
3715;DHT22;1873;49.988;8.674;2022-11-15T01:38:07;10.10;99.90
3715;DHT22;1873;49.988;8.674;2022-11-15T01:40:36;10.10;99.90
3715;DHT22;1873;49.988;8.674;2022-11-15T01:43:24;10.10;99.90
3715;DHT22;1873;49.988;8.674;2022-11-15T01:45:58;10.10;99.90
3715;DHT22;1873;49.988;8.674;2022-11-15T01:48:32;10.20;99.90
3715;DHT22;1873;49.988;8.674;2022-11-15T01:51:04;10.20;99.90
3715;DHT22;1873;49.988;8.674;2022-11-15T01:53:37;10.20;99.90
3715;DHT22;1873;49.988;8.674;2022-11-15T01:56:09;10.20;99.90
3715;DHT22;1873;49.988;8.674;2022-11-15T01:58:40;10.20;99.90
3715;DHT22;1873;49.988;8.674;2022-11-15T02:01:12;10.20;99.90
3715;DHT22;1873;49.988;8.674;2022-11-15T02:03:45;10.20;99.90
3715;DHT22;1873;49.988;8.674;2022-11-15T02:06:16;10.20;99.90
3715;DHT22;1873;49.988;8.674;2022-11-15T02:08:46;10.30;99.90
3715;DHT22;1873;49.988;8.674;2022-11-15T02:11:14;10.30;99.90
3715;DHT22;1873;49.988;8.674;2022-11-15T02:13:45;10.40;99.90
3715;DHT22;1873;49.988;8.674;2022-11-15T02:16:27;10.40;99.90
3715;DHT22;1873;49.988;8.674;2022-11-15T02:19:10;10.40;99.90
3715;DHT22;1873;49.988;8.674;2022-11-15T02:21:51;10.40;99.90
3715;DHT22;1873;49.988;8.674;2022-11-15T02:24:44;10.40;99.90
3715;DHT22;1873;49.988;8.674;2022-11-15T02:30:23;10.40;99.90
3715;DHT22;1873;49.988;8.674;2022-11-15T02:32:56;10.40;99.90
3715;DHT22;1873;49.988;8.674;2022-11-15T02:35:33;10.40;99.90
3715;DHT22;1873;49.988;8.674;2022-11-15T02:38:08;10.50;99.90
3715;DHT22;1873;49.988;8.674;2022-11-15T02:40:51;10.40;99.90
3715;DHT22;1873;49.988;8.674;2022-11-15T02:43:26;10.40;99.90
3715;DHT22;1873;49.988;8.674;2022-11-15T02:46:19;10.50;99.90
3715;DHT22;1873;49.988;8.674;2022-11-15T02:49:12;10.50;99.90
3715;DHT22;1873;49.988;8.674;2022-11-15T02:51:42;10.40;99.90
3715;DHT22;1873;49.988;8.674;2022-11-15T02:54:15;10.40;99.90
3715;DHT22;1873;49.988;8.674;2022-11-15T02:56:46;10.30;99.90
3715;DHT22;1873;49.988;8.674;2022-11-15T02:59:32;10.20;99.90
3715;DHT22;1873;49.988;8.674;2022-11-15T03:02:17;10.20;99.90
3715;DHT22;1873;49.988;8.674;2022-11-15T03:04:53;10.20;99.90
3715;DHT22;1873;49.988;8.674;2022-11-15T03:07:28;10.10;99.90
3715;DHT22;1873;49.988;8.674;2022-11-15T03:10:05;10.10;99.90
3715;DHT22;1873;49.988;8.674;2022-11-15T03:12:41;10.10;99.90
3715;DHT22;1873;49.988;8.674;2022-11-15T03:15:18;10.10;99.90
3715;DHT22;1873;49.988;8.674;2022-11-15T03:17:53;10.10;99.90
3715;DHT22;1873;49.988;8.674;2022-11-15T03:20:26;10.00;99.90
3715;DHT22;1873;49.988;8.674;2022-11-15T03:23:01;10.00;99.90
3715;DHT22;1873;49.988;8.674;2022-11-15T03:25:34;10.00;99.90
3715;DHT22;1873;49.988;8.674;2022-11-15T03:28:06;10.00;99.90
3715;DHT22;1873;49.988;8.674;2022-11-15T03:30:36;10.00;99.90
3715;DHT22;1873;49.988;8.674;2022-11-15T03:33:12;10.00;99.90
3715;DHT22;1873;49.988;8.674;2022-11-15T03:35:43;10.00;99.90
3715;DHT22;1873;49.988;8.674;2022-11-15T03:38:17;9.90;99.90
3715;DHT22;1873;49.988;8.674;2022-11-15T03:40:51;9.90;99.90
3715;DHT22;1873;49.988;8.674;2022-11-15T03:43:29;9.80;99.90
3715;DHT22;1873;49.988;8.674;2022-11-15T03:46:03;9.80;99.90
3715;DHT22;1873;49.988;8.674;2022-11-15T03:48:37;9.80;99.90
3715;DHT22;1873;49.988;8.674;2022-11-15T03:51:08;9.80;99.90
3715;DHT22;1873;49.988;8.674;2022-11-15T03:53:37;9.70;99.90
3715;DHT22;1873;49.988;8.674;2022-11-15T03:56:07;9.70;99.90
3715;DHT22;1873;49.988;8.674;2022-11-15T03:58:35;9.70;99.90
3715;DHT22;1873;49.988;8.674;2022-11-15T04:01:03;9.70;99.90
3715;DHT22;1873;49.988;8.674;2022-11-15T04:03:32;9.70;99.90
3715;DHT22;1873;49.988;8.674;2022-11-15T04:06:04;9.70;99.90
3715;DHT22;1873;49.988;8.674;2022-11-15T04:08:32;9.70;99.90
3715;DHT22;1873;49.988;8.674;2022-11-15T04:11:00;9.70;99.90
3715;DHT22;1873;49.988;8.674;2022-11-15T04:13:29;9.70;99.90
3715;DHT22;1873;49.988;8.674;2022-11-15T04:15:58;9.70;99.90
3715;DHT22;1873;49.988;8.674;2022-11-15T04:18:27;9.70;99.90
3715;DHT22;1873;49.988;8.674;2022-11-15T04:20:55;9.70;99.90
3715;DHT22;1873;49.988;8.674;2022-11-15T04:23:42;9.70;99.90
3715;DHT22;1873;49.988;8.674;2022-11-15T04:26:27;9.80;99.90
3715;DHT22;1873;49.988;8.674;2022-11-15T04:28:56;9.80;99.90
3715;DHT22;1873;49.988;8.674;2022-11-15T04:31:41;9.80;99.90
3715;DHT22;1873;49.988;8.674;2022-11-15T04:34:11;9.90;99.90
3715;DHT22;1873;49.988;8.674;2022-11-15T04:36:40;9.80;99.90
3715;DHT22;1873;49.988;8.674;2022-11-15T04:39:29;9.80;99.90
3715;DHT22;1873;49.988;8.674;2022-11-15T04:41:58;9.80;99.90
3715;DHT22;1873;49.988;8.674;2022-11-15T04:44:28;9.90;99.90
3715;DHT22;1873;49.988;8.674;2022-11-15T04:46:56;9.90;99.90
3715;DHT22;1873;49.988;8.674;2022-11-15T04:49:27;9.90;99.90
3715;DHT22;1873;49.988;8.674;2022-11-15T04:51:59;9.90;99.90
3715;DHT22;1873;49.988;8.674;2022-11-15T04:54:27;9.90;99.90
3715;DHT22;1873;49.988;8.674;2022-11-15T04:56:57;9.90;99.90
3715;DHT22;1873;49.988;8.674;2022-11-15T04:59:26;9.90;99.90
3715;DHT22;1873;49.988;8.674;2022-11-15T05:01:54;9.90;99.90
3715;DHT22;1873;49.988;8.674;2022-11-15T05:04:23;9.80;99.90
3715;DHT22;1873;49.988;8.674;2022-11-15T05:06:51;9.80;99.90
3715;DHT22;1873;49.988;8.674;2022-11-15T05:09:20;9.80;99.90
3715;DHT22;1873;49.988;8.674;2022-11-15T05:11:49;9.80;99.90
3715;DHT22;1873;49.988;8.674;2022-11-15T05:14:19;9.80;99.90
3715;DHT22;1873;49.988;8.674;2022-11-15T05:16:47;9.80;99.90
3715;DHT22;1873;49.988;8.674;2022-11-15T05:19:18;9.80;99.90
3715;DHT22;1873;49.988;8.674;2022-11-15T05:21:47;9.90;99.90
3715;DHT22;1873;49.988;8.674;2022-11-15T05:24:16;9.90;99.90
3715;DHT22;1873;49.988;8.674;2022-11-15T05:26:46;10.00;99.90
3715;DHT22;1873;49.988;8.674;2022-11-15T05:29:15;10.00;99.90
3715;DHT22;1873;49.988;8.674;2022-11-15T05:31:45;10.00;99.90
3715;DHT22;1873;49.988;8.674;2022-11-15T05:34:14;10.10;99.90
3715;DHT22;1873;49.988;8.674;2022-11-15T05:36:43;10.00;99.90
3715;DHT22;1873;49.988;8.674;2022-11-15T05:39:12;10.10;99.90
3715;DHT22;1873;49.988;8.674;2022-11-15T05:41:44;10.10;99.90
3715;DHT22;1873;49.988;8.674;2022-11-15T05:44:15;10.10;99.90
3715;DHT22;1873;49.988;8.674;2022-11-15T05:46:47;10.10;99.90
3715;DHT22;1873;49.988;8.674;2022-11-15T05:49:20;10.10;99.90
3715;DHT22;1873;49.988;8.674;2022-11-15T05:51:51;10.10;99.90
3715;DHT22;1873;49.988;8.674;2022-11-15T05:54:22;10.10;99.90
3715;DHT22;1873;49.988;8.674;2022-11-15T05:56:51;10.20;99.90
3715;DHT22;1873;49.988;8.674;2022-11-15T05:59:19;10.20;99.90
3715;DHT22;1873;49.988;8.674;2022-11-15T06:01:51;10.20;99.90
3715;DHT22;1873;49.988;8.674;2022-11-15T06:04:19;10.20;99.90
3715;DHT22;1873;49.988;8.674;2022-11-15T06:06:48;10.20;99.90
3715;DHT22;1873;49.988;8.674;2022-11-15T06:09:18;10.20;99.90
3715;DHT22;1873;49.988;8.674;2022-11-15T06:11:46;10.20;99.90
3715;DHT22;1873;49.988;8.674;2022-11-15T06:14:15;10.20;99.90
3715;DHT22;1873;49.988;8.674;2022-11-15T06:16:46;10.20;99.90
3715;DHT22;1873;49.988;8.674;2022-11-15T06:19:16;10.20;99.90
3715;DHT22;1873;49.988;8.674;2022-11-15T06:21:45;10.20;99.90
3715;DHT22;1873;49.988;8.674;2022-11-15T06:24:13;10.30;99.90
3715;DHT22;1873;49.988;8.674;2022-11-15T06:26:42;10.30;99.90
3715;DHT22;1873;49.988;8.674;2022-11-15T06:29:10;10.30;99.90
3715;DHT22;1873;49.988;8.674;2022-11-15T06:31:39;10.30;99.90
3715;DHT22;1873;49.988;8.674;2022-11-15T06:34:08;10.30;99.90
3715;DHT22;1873;49.988;8.674;2022-11-15T06:36:37;10.30;99.90
3715;DHT22;1873;49.988;8.674;2022-11-15T06:39:06;10.30;99.90
3715;DHT22;1873;49.988;8.674;2022-11-15T06:41:35;10.30;99.90
3715;DHT22;1873;49.988;8.674;2022-11-15T06:44:03;10.30;99.90
3715;DHT22;1873;49.988;8.674;2022-11-15T06:46:31;10.30;99.90
3715;DHT22;1873;49.988;8.674;2022-11-15T06:49:00;10.30;99.90
3715;DHT22;1873;49.988;8.674;2022-11-15T06:51:37;10.30;99.90
3715;DHT22;1873;49.988;8.674;2022-11-15T06:54:05;10.30;99.90
3715;DHT22;1873;49.988;8.674;2022-11-15T06:56:33;10.30;99.90
3715;DHT22;1873;49.988;8.674;2022-11-15T06:59:02;10.40;99.90
3715;DHT22;1873;49.988;8.674;2022-11-15T07:01:30;10.40;99.90
3715;DHT22;1873;49.988;8.674;2022-11-15T07:03:58;10.50;99.90
3715;DHT22;1873;49.988;8.674;2022-11-15T07:06:27;10.60;99.90
3715;DHT22;1873;49.988;8.674;2022-11-15T07:08:57;10.60;99.90
3715;DHT22;1873;49.988;8.674;2022-11-15T07:11:25;10.60;99.90
3715;DHT22;1873;49.988;8.674;2022-11-15T07:13:54;10.50;99.90
3715;DHT22;1873;49.988;8.674;2022-11-15T07:16:22;10.50;99.90
3715;DHT22;1873;49.988;8.674;2022-11-15T07:18:51;10.50;99.90
3715;DHT22;1873;49.988;8.674;2022-11-15T07:21:22;10.50;99.90
3715;DHT22;1873;49.988;8.674;2022-11-15T07:23:53;10.50;99.90
3715;DHT22;1873;49.988;8.674;2022-11-15T07:26:24;10.50;99.90
3715;DHT22;1873;49.988;8.674;2022-11-15T07:28:53;10.60;99.90
3715;DHT22;1873;49.988;8.674;2022-11-15T07:31:22;10.70;99.90
3715;DHT22;1873;49.988;8.674;2022-11-15T07:33:50;10.80;99.90
3715;DHT22;1873;49.988;8.674;2022-11-15T07:36:19;10.80;99.90
3715;DHT22;1873;49.988;8.674;2022-11-15T07:38:48;10.90;99.90
3715;DHT22;1873;49.988;8.674;2022-11-15T07:41:16;10.90;99.90
3715;DHT22;1873;49.988;8.674;2022-11-15T07:43:46;11.00;99.90
3715;DHT22;1873;49.988;8.674;2022-11-15T07:46:15;11.10;99.90
3715;DHT22;1873;49.988;8.674;2022-11-15T07:48:43;11.10;99.90
3715;DHT22;1873;49.988;8.674;2022-11-15T07:51:12;11.20;99.90
3715;DHT22;1873;49.988;8.674;2022-11-15T07:53:41;11.20;99.90
3715;DHT22;1873;49.988;8.674;2022-11-15T07:56:12;11.20;99.90
3715;DHT22;1873;49.988;8.674;2022-11-15T07:58:42;11.20;99.90
3715;DHT22;1873;49.988;8.674;2022-11-15T08:01:11;11.30;99.90
3715;DHT22;1873;49.988;8.674;2022-11-15T08:03:40;11.30;99.90
3715;DHT22;1873;49.988;8.674;2022-11-15T08:06:09;11.30;99.90
3715;DHT22;1873;49.988;8.674;2022-11-15T08:08:37;11.40;99.90
3715;DHT22;1873;49.988;8.674;2022-11-15T08:11:06;11.40;99.90
3715;DHT22;1873;49.988;8.674;2022-11-15T08:13:34;11.40;99.90
3715;DHT22;1873;49.988;8.674;2022-11-15T08:16:04;11.40;99.90
3715;DHT22;1873;49.988;8.674;2022-11-15T08:18:36;11.40;99.90
3715;DHT22;1873;49.988;8.674;2022-11-15T08:21:04;11.40;99.90
3715;DHT22;1873;49.988;8.674;2022-11-15T08:23:33;11.40;99.90
3715;DHT22;1873;49.988;8.674;2022-11-15T08:26:04;11.40;99.90
3715;DHT22;1873;49.988;8.674;2022-11-15T08:28:33;11.40;99.90
3715;DHT22;1873;49.988;8.674;2022-11-15T08:31:02;11.40;99.90
3715;DHT22;1873;49.988;8.674;2022-11-15T08:33:31;11.40;99.90
3715;DHT22;1873;49.988;8.674;2022-11-15T08:36:02;11.40;99.90
3715;DHT22;1873;49.988;8.674;2022-11-15T08:38:30;11.40;99.90
3715;DHT22;1873;49.988;8.674;2022-11-15T08:41:01;11.40;99.90
3715;DHT22;1873;49.988;8.674;2022-11-15T08:43:30;11.50;99.90
3715;DHT22;1873;49.988;8.674;2022-11-15T08:46:01;11.50;99.90
3715;DHT22;1873;49.988;8.674;2022-11-15T08:48:31;11.50;99.90
3715;DHT22;1873;49.988;8.674;2022-11-15T08:51:01;11.50;99.90
3715;DHT22;1873;49.988;8.674;2022-11-15T08:53:30;11.50;99.90
3715;DHT22;1873;49.988;8.674;2022-11-15T08:55:58;11.50;99.90
3715;DHT22;1873;49.988;8.674;2022-11-15T08:58:27;11.50;99.90
3715;DHT22;1873;49.988;8.674;2022-11-15T09:00:56;11.50;99.90
3715;DHT22;1873;49.988;8.674;2022-11-15T09:03:25;11.50;99.90
3715;DHT22;1873;49.988;8.674;2022-11-15T09:05:55;11.50;99.90
3715;DHT22;1873;49.988;8.674;2022-11-15T09:08:28;11.50;99.90
3715;DHT22;1873;49.988;8.674;2022-11-15T09:11:14;11.50;99.90
3715;DHT22;1873;49.988;8.674;2022-11-15T09:13:43;11.50;99.90
3715;DHT22;1873;49.988;8.674;2022-11-15T09:16:11;11.60;99.90
3715;DHT22;1873;49.988;8.674;2022-11-15T09:18:42;11.60;99.90
3715;DHT22;1873;49.988;8.674;2022-11-15T09:21:10;11.60;99.90
3715;DHT22;1873;49.988;8.674;2022-11-15T09:23:41;11.60;99.90
3715;DHT22;1873;49.988;8.674;2022-11-15T09:26:09;11.70;99.90
3715;DHT22;1873;49.988;8.674;2022-11-15T09:28:38;11.70;99.90
3715;DHT22;1873;49.988;8.674;2022-11-15T09:31:08;11.80;99.90
3715;DHT22;1873;49.988;8.674;2022-11-15T09:33:37;11.80;99.90
3715;DHT22;1873;49.988;8.674;2022-11-15T09:36:07;11.90;99.90
3715;DHT22;1873;49.988;8.674;2022-11-15T09:38:36;11.90;99.90
3715;DHT22;1873;49.988;8.674;2022-11-15T09:41:33;11.90;99.90
3715;DHT22;1873;49.988;8.674;2022-11-15T09:44:17;11.90;99.90
3715;DHT22;1873;49.988;8.674;2022-11-15T09:46:57;11.90;99.90
3715;DHT22;1873;49.988;8.674;2022-11-15T09:49:31;11.90;99.90
3715;DHT22;1873;49.988;8.674;2022-11-15T09:52:00;11.90;99.90
3715;DHT22;1873;49.988;8.674;2022-11-15T09:54:31;11.90;99.90
3715;DHT22;1873;49.988;8.674;2022-11-15T09:57:28;11.90;99.90
3715;DHT22;1873;49.988;8.674;2022-11-15T10:00:10;12.00;99.90
3715;DHT22;1873;49.988;8.674;2022-11-15T10:03:10;11.90;99.90
3715;DHT22;1873;49.988;8.674;2022-11-15T10:05:44;12.00;99.90
3715;DHT22;1873;49.988;8.674;2022-11-15T10:08:35;12.00;99.90
3715;DHT22;1873;49.988;8.674;2022-11-15T10:11:07;12.10;99.90
3715;DHT22;1873;49.988;8.674;2022-11-15T10:14:01;12.10;99.90
3715;DHT22;1873;49.988;8.674;2022-11-15T10:16:43;12.10;99.90
3715;DHT22;1873;49.988;8.674;2022-11-15T10:19:24;12.10;99.90
3715;DHT22;1873;49.988;8.674;2022-11-15T10:22:23;12.00;99.90
3715;DHT22;1873;49.988;8.674;2022-11-15T10:25:01;12.10;99.90
3715;DHT22;1873;49.988;8.674;2022-11-15T10:27:39;12.10;99.90
3715;DHT22;1873;49.988;8.674;2022-11-15T10:30:15;12.10;99.90
3715;DHT22;1873;49.988;8.674;2022-11-15T10:32:46;12.20;99.90
3715;DHT22;1873;49.988;8.674;2022-11-15T10:35:24;12.10;99.90
3715;DHT22;1873;49.988;8.674;2022-11-15T10:38:04;12.20;99.90
3715;DHT22;1873;49.988;8.674;2022-11-15T10:40:34;12.20;99.90
3715;DHT22;1873;49.988;8.674;2022-11-15T10:43:06;12.20;99.90
3715;DHT22;1873;49.988;8.674;2022-11-15T10:45:42;12.20;99.90
3715;DHT22;1873;49.988;8.674;2022-11-15T10:48:22;12.20;99.90
3715;DHT22;1873;49.988;8.674;2022-11-15T10:50:52;12.20;99.90
3715;DHT22;1873;49.988;8.674;2022-11-15T10:53:26;12.20;99.90
3715;DHT22;1873;49.988;8.674;2022-11-15T10:55:59;12.20;99.90
3715;DHT22;1873;49.988;8.674;2022-11-15T10:58:39;12.20;99.90
3715;DHT22;1873;49.988;8.674;2022-11-15T11:01:13;12.20;99.90
3715;DHT22;1873;49.988;8.674;2022-11-15T11:03:43;12.20;99.90
3715;DHT22;1873;49.988;8.674;2022-11-15T11:06:13;12.20;99.90
3715;DHT22;1873;49.988;8.674;2022-11-15T11:08:54;12.20;99.90
3715;DHT22;1873;49.988;8.674;2022-11-15T11:11:23;12.30;99.90
3715;DHT22;1873;49.988;8.674;2022-11-15T11:13:52;12.20;99.90
3715;DHT22;1873;49.988;8.674;2022-11-15T11:16:43;12.30;99.90
3715;DHT22;1873;49.988;8.674;2022-11-15T11:19:44;12.30;99.90
3715;DHT22;1873;49.988;8.674;2022-11-15T11:22:21;12.40;99.90
3715;DHT22;1873;49.988;8.674;2022-11-15T11:25:02;12.40;99.90
3715;DHT22;1873;49.988;8.674;2022-11-15T11:27:42;12.50;99.90
3715;DHT22;1873;49.988;8.674;2022-11-15T11:30:14;12.50;99.90
3715;DHT22;1873;49.988;8.674;2022-11-15T11:33:10;12.60;99.90
3715;DHT22;1873;49.988;8.674;2022-11-15T11:35:49;12.70;99.90
3715;DHT22;1873;49.988;8.674;2022-11-15T11:38:34;12.70;99.90
3715;DHT22;1873;49.988;8.674;2022-11-15T11:41:13;12.80;99.90
3715;DHT22;1873;49.988;8.674;2022-11-15T11:43:51;12.80;99.90
3715;DHT22;1873;49.988;8.674;2022-11-15T11:46:34;12.80;99.90
3715;DHT22;1873;49.988;8.674;2022-11-15T11:49:12;12.80;99.90
3715;DHT22;1873;49.988;8.674;2022-11-15T11:51:47;12.80;99.90
3715;DHT22;1873;49.988;8.674;2022-11-15T11:54:22;12.80;99.90
3715;DHT22;1873;49.988;8.674;2022-11-15T11:56:51;12.80;99.90
3715;DHT22;1873;49.988;8.674;2022-11-15T11:59:31;12.80;99.90
3715;DHT22;1873;49.988;8.674;2022-11-15T12:02:07;12.90;99.90
3715;DHT22;1873;49.988;8.674;2022-11-15T12:04:44;12.90;99.90
3715;DHT22;1873;49.988;8.674;2022-11-15T12:07:18;12.90;99.90
3715;DHT22;1873;49.988;8.674;2022-11-15T12:09:55;13.00;99.90
3715;DHT22;1873;49.988;8.674;2022-11-15T12:12:31;13.00;99.90
3715;DHT22;1873;49.988;8.674;2022-11-15T12:15:09;13.00;99.90
3715;DHT22;1873;49.988;8.674;2022-11-15T12:17:41;13.10;99.90
3715;DHT22;1873;49.988;8.674;2022-11-15T12:20:17;13.00;99.90
3715;DHT22;1873;49.988;8.674;2022-11-15T12:22:52;13.10;99.90
3715;DHT22;1873;49.988;8.674;2022-11-15T12:25:22;13.00;99.90
3715;DHT22;1873;49.988;8.674;2022-11-15T12:27:56;13.00;99.90
3715;DHT22;1873;49.988;8.674;2022-11-15T12:30:38;13.00;99.90
3715;DHT22;1873;49.988;8.674;2022-11-15T12:33:30;13.10;99.90
3715;DHT22;1873;49.988;8.674;2022-11-15T12:36:03;13.10;99.90
3715;DHT22;1873;49.988;8.674;2022-11-15T12:38:54;13.20;99.90
3715;DHT22;1873;49.988;8.674;2022-11-15T12:41:24;13.20;99.90
3715;DHT22;1873;49.988;8.674;2022-11-15T12:43:54;13.30;99.90
3715;DHT22;1873;49.988;8.674;2022-11-15T12:46:59;13.40;99.90
3715;DHT22;1873;49.988;8.674;2022-11-15T12:49:47;13.40;99.90
3715;DHT22;1873;49.988;8.674;2022-11-15T12:52:19;13.40;99.90
3715;DHT22;1873;49.988;8.674;2022-11-15T12:55:00;13.40;99.90
3715;DHT22;1873;49.988;8.674;2022-11-15T12:57:38;13.40;99.90
3715;DHT22;1873;49.988;8.674;2022-11-15T13:03:22;13.40;99.90
3715;DHT22;1873;49.988;8.674;2022-11-15T13:05:59;13.30;99.90
3715;DHT22;1873;49.988;8.674;2022-11-15T13:08:47;13.30;99.90
3715;DHT22;1873;49.988;8.674;2022-11-15T13:11:45;13.20;99.90
3715;DHT22;1873;49.988;8.674;2022-11-15T13:17:29;13.20;99.90
3715;DHT22;1873;49.988;8.674;2022-11-15T13:20:08;13.20;99.90
3715;DHT22;1873;49.988;8.674;2022-11-15T13:22:48;13.10;99.90
3715;DHT22;1873;49.988;8.674;2022-11-15T13:25:46;13.00;99.90
3715;DHT22;1873;49.988;8.674;2022-11-15T13:28:23;13.00;99.90
3715;DHT22;1873;49.988;8.674;2022-11-15T13:30:53;13.00;99.90
3715;DHT22;1873;49.988;8.674;2022-11-15T13:33:30;13.00;99.90
3715;DHT22;1873;49.988;8.674;2022-11-15T13:36:05;13.00;99.90
3715;DHT22;1873;49.988;8.674;2022-11-15T13:38:35;13.00;99.90
3715;DHT22;1873;49.988;8.674;2022-11-15T13:41:17;12.90;99.90
3715;DHT22;1873;49.988;8.674;2022-11-15T13:43:47;12.90;99.90
3715;DHT22;1873;49.988;8.674;2022-11-15T13:46:17;13.00;99.90
3715;DHT22;1873;49.988;8.674;2022-11-15T13:48:52;13.00;99.90
3715;DHT22;1873;49.988;8.674;2022-11-15T13:51:24;13.00;99.90
3715;DHT22;1873;49.988;8.674;2022-11-15T13:53:58;13.00;99.90
3715;DHT22;1873;49.988;8.674;2022-11-15T13:56:31;13.00;99.90
3715;DHT22;1873;49.988;8.674;2022-11-15T13:59:01;13.00;99.90
3715;DHT22;1873;49.988;8.674;2022-11-15T14:01:36;13.00;99.90
3715;DHT22;1873;49.988;8.674;2022-11-15T14:04:05;13.00;99.90
3715;DHT22;1873;49.988;8.674;2022-11-15T14:06:44;13.00;99.90
3715;DHT22;1873;49.988;8.674;2022-11-15T14:09:39;13.00;99.90
3715;DHT22;1873;49.988;8.674;2022-11-15T14:12:25;13.00;99.90
3715;DHT22;1873;49.988;8.674;2022-11-15T14:14:56;13.00;99.90
3715;DHT22;1873;49.988;8.674;2022-11-15T14:17:37;12.90;99.90
3715;DHT22;1873;49.988;8.674;2022-11-15T14:20:25;13.00;99.90
3715;DHT22;1873;49.988;8.674;2022-11-15T14:22:55;13.00;99.90
3715;DHT22;1873;49.988;8.674;2022-11-15T14:25:26;13.00;99.90
3715;DHT22;1873;49.988;8.674;2022-11-15T14:28:32;13.10;99.90
3715;DHT22;1873;49.988;8.674;2022-11-15T14:31:09;13.10;99.90
3715;DHT22;1873;49.988;8.674;2022-11-15T14:33:39;13.10;99.90
3715;DHT22;1873;49.988;8.674;2022-11-15T14:36:12;13.10;99.90
3715;DHT22;1873;49.988;8.674;2022-11-15T14:38:41;13.10;99.90
3715;DHT22;1873;49.988;8.674;2022-11-15T14:41:18;13.10;99.90
3715;DHT22;1873;49.988;8.674;2022-11-15T14:43:49;13.10;99.90
3715;DHT22;1873;49.988;8.674;2022-11-15T14:46:18;13.10;99.90
3715;DHT22;1873;49.988;8.674;2022-11-15T14:48:47;13.00;99.90
3715;DHT22;1873;49.988;8.674;2022-11-15T14:51:17;13.00;99.90
3715;DHT22;1873;49.988;8.674;2022-11-15T14:53:47;12.90;99.90
3715;DHT22;1873;49.988;8.674;2022-11-15T14:56:15;13.00;99.90
3715;DHT22;1873;49.988;8.674;2022-11-15T14:58:44;13.00;99.90
3715;DHT22;1873;49.988;8.674;2022-11-15T15:01:20;13.00;99.90
3715;DHT22;1873;49.988;8.674;2022-11-15T15:03:51;13.10;99.90
3715;DHT22;1873;49.988;8.674;2022-11-15T15:06:22;13.10;99.90
3715;DHT22;1873;49.988;8.674;2022-11-15T15:08:51;13.10;99.90
3715;DHT22;1873;49.988;8.674;2022-11-15T15:11:22;13.10;99.90
3715;DHT22;1873;49.988;8.674;2022-11-15T15:13:53;13.10;99.90
3715;DHT22;1873;49.988;8.674;2022-11-15T15:16:30;13.10;99.90
3715;DHT22;1873;49.988;8.674;2022-11-15T15:19:00;13.20;99.90
3715;DHT22;1873;49.988;8.674;2022-11-15T15:21:28;13.20;99.90
3715;DHT22;1873;49.988;8.674;2022-11-15T15:24:04;13.20;99.90
3715;DHT22;1873;49.988;8.674;2022-11-15T15:26:32;13.30;99.90
3715;DHT22;1873;49.988;8.674;2022-11-15T15:29:04;13.30;99.90
3715;DHT22;1873;49.988;8.674;2022-11-15T15:31:34;13.30;99.90
3715;DHT22;1873;49.988;8.674;2022-11-15T15:34:03;13.30;99.90
3715;DHT22;1873;49.988;8.674;2022-11-15T15:36:36;13.30;99.90
3715;DHT22;1873;49.988;8.674;2022-11-15T15:39:05;13.30;99.90
3715;DHT22;1873;49.988;8.674;2022-11-15T15:41:35;13.30;99.90
3715;DHT22;1873;49.988;8.674;2022-11-15T15:44:04;13.30;99.90
3715;DHT22;1873;49.988;8.674;2022-11-15T15:46:36;13.20;99.90
3715;DHT22;1873;49.988;8.674;2022-11-15T15:49:05;13.20;99.90
3715;DHT22;1873;49.988;8.674;2022-11-15T15:51:33;13.20;99.90
3715;DHT22;1873;49.988;8.674;2022-11-15T15:54:02;13.20;99.90
3715;DHT22;1873;49.988;8.674;2022-11-15T15:56:30;13.20;99.90
3715;DHT22;1873;49.988;8.674;2022-11-15T15:59:00;13.10;99.90
3715;DHT22;1873;49.988;8.674;2022-11-15T16:01:28;13.10;99.90
3715;DHT22;1873;49.988;8.674;2022-11-15T16:03:59;13.10;99.90
3715;DHT22;1873;49.988;8.674;2022-11-15T16:06:37;13.10;99.90
3715;DHT22;1873;49.988;8.674;2022-11-15T16:09:12;13.00;99.90
3715;DHT22;1873;49.988;8.674;2022-11-15T16:11:45;13.00;99.90
3715;DHT22;1873;49.988;8.674;2022-11-15T16:14:14;13.00;99.90
3715;DHT22;1873;49.988;8.674;2022-11-15T16:16:43;13.00;99.90
3715;DHT22;1873;49.988;8.674;2022-11-15T16:19:15;13.00;99.90
3715;DHT22;1873;49.988;8.674;2022-11-15T16:21:44;13.00;99.90
3715;DHT22;1873;49.988;8.674;2022-11-15T16:24:13;13.00;99.90
3715;DHT22;1873;49.988;8.674;2022-11-15T16:26:43;13.00;99.90
3715;DHT22;1873;49.988;8.674;2022-11-15T16:29:11;13.00;99.90
3715;DHT22;1873;49.988;8.674;2022-11-15T16:31:40;13.00;99.90
3715;DHT22;1873;49.988;8.674;2022-11-15T16:34:08;13.00;99.90
3715;DHT22;1873;49.988;8.674;2022-11-15T16:36:38;12.90;99.90
3715;DHT22;1873;49.988;8.674;2022-11-15T16:39:10;12.90;99.90
3715;DHT22;1873;49.988;8.674;2022-11-15T16:41:40;12.90;99.90
3715;DHT22;1873;49.988;8.674;2022-11-15T16:44:10;12.90;99.90
3715;DHT22;1873;49.988;8.674;2022-11-15T16:46:40;12.90;99.90
3715;DHT22;1873;49.988;8.674;2022-11-15T16:49:12;12.90;99.90
3715;DHT22;1873;49.988;8.674;2022-11-15T16:51:44;12.90;99.90